createdAt,value
2022-12-20T00:01:56.395Z,6.10
2022-12-20T00:04:24.746Z,5.90
2022-12-20T00:06:53.176Z,6.00
2022-12-20T00:09:21.928Z,5.90
2022-12-20T00:11:50.222Z,5.70
2022-12-20T00:14:18.726Z,5.50
2022-12-20T00:16:47.176Z,5.90
2022-12-20T00:19:16.851Z,5.30
2022-12-20T00:21:45.416Z,5.20
2022-12-20T00:24:13.762Z,4.90
2022-12-20T00:26:42.290Z,4.60
2022-12-20T00:29:11.754Z,4.50
2022-12-20T00:31:40.132Z,4.90
2022-12-20T00:34:11.030Z,4.80
2022-12-20T00:36:40.779Z,4.50
2022-12-20T00:39:10.082Z,4.30
2022-12-20T00:41:38.444Z,3.80
2022-12-20T00:44:06.944Z,3.90
2022-12-20T00:46:35.789Z,3.80
2022-12-20T00:49:04.107Z,4.30
2022-12-20T00:51:32.936Z,4.10
2022-12-20T00:54:01.389Z,4.10
2022-12-20T00:56:29.855Z,3.70
2022-12-20T00:59:00.087Z,3.60
2022-12-20T01:01:32.126Z,4.00
2022-12-20T01:04:01.235Z,3.60
2022-12-20T01:06:30.606Z,3.60
2022-12-20T01:08:59.334Z,3.80
2022-12-20T01:11:31.558Z,4.00
2022-12-20T01:14:02.961Z,3.80
2022-12-20T01:16:35.698Z,3.40
2022-12-20T01:19:05.458Z,3.90
2022-12-20T01:21:34.601Z,3.30
2022-12-20T01:24:03.004Z,3.00
2022-12-20T01:26:31.338Z,3.30
2022-12-20T01:29:00.854Z,3.50
2022-12-20T01:31:30.560Z,3.70
2022-12-20T01:33:59.924Z,3.80
2022-12-20T01:36:34.109Z,4.10
2022-12-20T01:39:06.437Z,3.50
2022-12-20T01:44:17.105Z,3.90
2022-12-20T01:46:48.730Z,3.70
2022-12-20T01:49:30.017Z,3.60
2022-12-20T01:52:06.266Z,3.80
2022-12-20T01:54:39.669Z,4.00
2022-12-20T01:57:21.384Z,4.00
2022-12-20T01:59:52.548Z,3.80
2022-12-20T02:02:23.117Z,3.80
2022-12-20T02:04:51.571Z,4.20
2022-12-20T02:07:24.780Z,3.70
2022-12-20T02:09:55.370Z,4.00
2022-12-20T02:12:34.143Z,5.00
2022-12-20T02:15:23.850Z,4.40
2022-12-20T02:18:10.734Z,5.20
2022-12-20T02:21:07.276Z,5.60
2022-12-20T02:23:43.331Z,5.70
2022-12-20T02:26:38.171Z,6.70
2022-12-20T02:29:18.897Z,5.80
2022-12-20T02:31:54.035Z,7.10
2022-12-20T02:34:27.940Z,6.20
2022-12-20T02:36:56.887Z,7.10
2022-12-20T02:39:29.197Z,6.70
2022-12-20T02:44:49.799Z,7.80
2022-12-20T02:47:25.193Z,7.20
2022-12-20T02:49:56.057Z,8.30
2022-12-20T02:52:31.192Z,8.60
2022-12-20T02:55:01.177Z,9.60
2022-12-20T02:57:57.896Z,9.50
2022-12-20T03:00:33.817Z,10.60
2022-12-20T03:03:21.635Z,9.90
2022-12-20T03:05:55.999Z,10.30
2022-12-20T03:08:25.112Z,10.90
2022-12-20T03:10:55.304Z,11.20
2022-12-20T03:13:25.355Z,12.20
2022-12-20T03:16:00.707Z,12.00
2022-12-20T03:18:29.576Z,11.80
2022-12-20T03:20:58.211Z,12.40
2022-12-20T03:23:27.071Z,12.90
2022-12-20T03:25:55.578Z,11.90
2022-12-20T03:28:34.797Z,12.30
2022-12-20T03:31:04.233Z,12.60
2022-12-20T03:33:34.663Z,12.50
2022-12-20T03:36:07.824Z,13.00
2022-12-20T03:38:36.425Z,13.70
2022-12-20T03:41:06.703Z,13.50
2022-12-20T03:43:35.265Z,12.80
2022-12-20T03:46:04.050Z,13.90
2022-12-20T03:51:05.723Z,14.30
2022-12-20T03:53:34.904Z,14.30
2022-12-20T03:56:03.940Z,15.00
2022-12-20T03:58:32.369Z,15.60
2022-12-20T04:01:01.457Z,15.90
2022-12-20T04:03:43.290Z,15.70
2022-12-20T04:06:12.063Z,14.90
2022-12-20T04:08:40.567Z,14.80
2022-12-20T04:11:16.441Z,14.40
2022-12-20T04:14:08.867Z,14.50
2022-12-20T04:16:37.814Z,15.50
2022-12-20T04:19:07.351Z,16.90
2022-12-20T04:21:40.483Z,16.10
2022-12-20T04:24:10.568Z,14.40
2022-12-20T04:27:02.476Z,15.20
2022-12-20T04:29:31.285Z,16.70
2022-12-20T04:32:00.391Z,16.20
2022-12-20T04:34:29.859Z,16.10
2022-12-20T04:36:59.306Z,17.20
2022-12-20T04:39:38.503Z,16.80
2022-12-20T04:42:28.216Z,15.40
2022-12-20T04:44:57.271Z,16.30
2022-12-20T04:47:27.991Z,15.70
2022-12-20T04:49:56.850Z,15.10
2022-12-20T04:52:48.015Z,16.70
2022-12-20T04:55:16.907Z,17.70
2022-12-20T04:57:46.169Z,18.30
2022-12-20T05:00:15.628Z,17.60
2022-12-20T05:02:45.636Z,16.00
2022-12-20T05:05:17.180Z,15.90
2022-12-20T05:07:50.357Z,14.60
2022-12-20T05:10:19.674Z,16.10
2022-12-20T05:12:50.063Z,16.90
2022-12-20T05:15:26.120Z,15.90
2022-12-20T05:17:59.603Z,16.00
2022-12-20T05:20:31.471Z,15.80
2022-12-20T05:23:19.951Z,15.60
2022-12-20T05:26:09.487Z,15.10
2022-12-20T05:28:38.049Z,15.20
2022-12-20T05:31:06.750Z,16.80
2022-12-20T05:33:37.082Z,17.30
2022-12-20T05:36:06.132Z,18.80
2022-12-20T05:38:34.878Z,18.10
2022-12-20T05:41:06.163Z,18.10
2022-12-20T05:43:34.841Z,19.00
2022-12-20T05:46:05.944Z,19.00
2022-12-20T05:48:42.428Z,18.40
2022-12-20T05:51:12.175Z,18.60
2022-12-20T05:53:53.530Z,18.90
2022-12-20T05:56:25.347Z,21.10
2022-12-20T05:58:53.706Z,20.20
2022-12-20T06:01:22.185Z,20.00
2022-12-20T06:03:51.692Z,19.00
2022-12-20T06:06:20.178Z,18.70
2022-12-20T06:08:49.358Z,19.70
2022-12-20T06:11:40.273Z,19.60
2022-12-20T06:14:11.580Z,18.60
2022-12-20T06:16:45.603Z,22.50
2022-12-20T06:19:21.206Z,19.70
2022-12-20T06:21:50.628Z,17.70
2022-12-20T06:24:25.451Z,19.40
2022-12-20T06:26:54.759Z,20.20
2022-12-20T06:29:24.872Z,19.20
2022-12-20T06:32:00.298Z,20.70
2022-12-20T06:34:29.050Z,20.80
2022-12-20T06:36:57.531Z,19.70
2022-12-20T06:39:29.551Z,21.50
2022-12-20T06:42:05.598Z,21.30
2022-12-20T06:44:35.405Z,21.40
2022-12-20T06:47:03.915Z,19.60
2022-12-20T06:49:32.272Z,20.70
2022-12-20T06:52:00.968Z,22.60
2022-12-20T06:54:45.374Z,21.30
2022-12-20T06:57:15.062Z,22.30
2022-12-20T06:59:45.471Z,20.90
2022-12-20T07:02:14.250Z,20.50
2022-12-20T07:04:42.919Z,21.10
2022-12-20T07:07:13.344Z,22.60
2022-12-20T07:09:42.852Z,22.60
2022-12-20T07:12:12.176Z,23.70
2022-12-20T07:14:40.511Z,23.70
2022-12-20T07:17:09.269Z,23.90
2022-12-20T07:19:38.134Z,19.70
2022-12-20T07:22:06.862Z,22.20
2022-12-20T07:24:35.222Z,21.80
2022-12-20T07:27:03.867Z,21.80
2022-12-20T07:29:32.297Z,23.70
2022-12-20T07:32:00.791Z,22.60
2022-12-20T07:34:29.423Z,23.10
2022-12-20T07:36:57.822Z,22.20
2022-12-20T07:39:26.372Z,23.00
2022-12-20T07:41:55.688Z,21.40
2022-12-20T07:44:24.475Z,22.90
2022-12-20T07:46:53.469Z,21.80
2022-12-20T07:49:22.353Z,22.30
2022-12-20T07:51:55.615Z,23.90
2022-12-20T07:54:38.465Z,23.50
2022-12-20T07:57:12.719Z,22.20
2022-12-20T07:59:47.505Z,21.40
2022-12-20T08:02:22.481Z,22.60
2022-12-20T08:04:51.127Z,22.20
2022-12-20T08:07:19.691Z,23.70
2022-12-20T08:09:48.604Z,22.90
2022-12-20T08:12:19.320Z,22.80
2022-12-20T08:14:47.868Z,23.30
2022-12-20T08:17:16.490Z,22.50
2022-12-20T08:19:44.946Z,21.00
2022-12-20T08:22:13.275Z,21.00
2022-12-20T08:24:41.553Z,21.80
2022-12-20T08:27:09.925Z,22.40
2022-12-20T08:29:38.364Z,22.90
2022-12-20T08:32:06.756Z,22.80
2022-12-20T08:34:35.456Z,22.90
2022-12-20T08:37:09.045Z,22.00
2022-12-20T08:39:40.940Z,20.60
2022-12-20T08:42:12.743Z,20.90
2022-12-20T08:44:41.137Z,22.40
2022-12-20T08:47:10.541Z,22.70
2022-12-20T08:49:44.018Z,20.00
2022-12-20T08:52:16.002Z,21.10
2022-12-20T08:54:44.358Z,21.60
2022-12-20T08:57:13.157Z,20.70
2022-12-20T08:59:43.892Z,18.70
2022-12-20T09:02:12.525Z,19.80
2022-12-20T09:04:41.290Z,19.90
2022-12-20T09:07:09.980Z,19.20
2022-12-20T09:09:38.428Z,20.50
2022-12-20T09:12:07.929Z,21.60
2022-12-20T09:14:36.341Z,20.00
2022-12-20T09:17:04.883Z,20.90
2022-12-20T09:19:33.528Z,21.10
2022-12-20T09:22:02.015Z,19.90
2022-12-20T09:24:30.689Z,20.60
2022-12-20T09:27:00.118Z,22.00
2022-12-20T09:29:35.248Z,22.30
2022-12-20T09:32:04.607Z,23.20
2022-12-20T09:34:33.176Z,22.00
2022-12-20T09:37:01.722Z,22.80
2022-12-20T09:39:30.384Z,22.60
2022-12-20T09:41:59.335Z,22.20
2022-12-20T09:44:32.450Z,21.90
2022-12-20T11:13:22.792Z,17.70
2022-12-20T11:15:54.082Z,18.00
2022-12-20T11:18:48.481Z,17.50
2022-12-20T11:21:45.274Z,17.60
2022-12-20T11:24:23.312Z,18.10
2022-12-20T11:27:09.309Z,17.60
2022-12-20T11:29:46.900Z,20.60
2022-12-20T11:32:48.815Z,19.90
2022-12-20T11:35:16.639Z,20.50
2022-12-20T11:38:07.203Z,18.30
2022-12-20T11:44:23.350Z,19.50
2022-12-20T11:47:20.901Z,19.80
2022-12-20T11:50:02.680Z,20.70
2022-12-20T11:52:35.593Z,22.80
2022-12-20T11:55:06.140Z,19.40
2022-12-20T11:58:16.485Z,19.30
2022-12-20T12:00:34.721Z,20.00
2022-12-20T12:03:12.297Z,19.30
2022-12-20T12:05:58.824Z,18.90
2022-12-20T12:09:06.063Z,20.50
2022-12-20T12:12:06.039Z,18.80
2022-12-20T12:14:34.859Z,18.40
2022-12-20T12:17:11.484Z,18.70
2022-12-20T12:19:42.929Z,18.20
2022-12-20T12:22:22.256Z,18.50
2022-12-20T12:24:56.633Z,18.50
2022-12-20T12:27:26.103Z,18.10
2022-12-20T12:29:58.492Z,19.40
2022-12-20T12:35:38.996Z,17.40
2022-12-20T12:38:33.866Z,19.10
2022-12-20T12:41:09.659Z,17.70
2022-12-20T12:43:45.090Z,18.60
2022-12-20T12:46:21.617Z,18.30
2022-12-20T12:48:56.035Z,18.60
2022-12-20T12:51:34.725Z,19.90
2022-12-20T12:54:16.391Z,19.40
2022-12-20T12:56:49.042Z,18.10
2022-12-20T12:59:40.374Z,19.50
2022-12-20T13:02:14.137Z,17.50
2022-12-20T13:05:04.239Z,19.10
2022-12-20T13:07:31.901Z,18.20
2022-12-20T13:10:24.371Z,19.40
2022-12-20T13:12:51.597Z,20.80
2022-12-20T13:15:18.703Z,18.60
2022-12-20T13:17:59.124Z,18.40
2022-12-20T13:20:29.673Z,16.70
2022-12-20T13:23:12.228Z,16.60
2022-12-20T13:25:57.750Z,16.90
2022-12-20T13:28:25.190Z,16.90
2022-12-20T13:31:01.754Z,17.20
2022-12-20T13:33:44.590Z,18.40
2022-12-20T13:36:11.772Z,19.30
2022-12-20T13:38:45.004Z,18.60
2022-12-20T13:41:36.094Z,18.40
2022-12-20T13:44:15.752Z,16.70
2022-12-20T13:47:10.963Z,17.70
2022-12-20T13:49:40.425Z,19.70
2022-12-20T13:52:20.491Z,17.90
2022-12-20T13:54:51.880Z,19.50
2022-12-20T13:57:26.847Z,19.30
2022-12-20T14:00:03.515Z,18.70
2022-12-20T14:02:40.467Z,17.90
2022-12-20T14:05:25.955Z,16.90
2022-12-20T14:08:14.566Z,18.00
2022-12-20T14:10:41.740Z,18.90
2022-12-20T14:13:38.457Z,18.00
2022-12-20T14:16:18.082Z,18.60
2022-12-20T14:18:57.714Z,18.00
2022-12-20T14:21:26.074Z,17.30
2022-12-20T14:23:56.482Z,18.00
2022-12-20T14:26:29.396Z,17.80
2022-12-20T14:28:58.375Z,17.50
2022-12-20T14:31:30.243Z,17.30
2022-12-20T14:34:16.680Z,18.80
2022-12-20T14:36:46.836Z,18.60
2022-12-20T14:39:31.567Z,17.00
2022-12-20T14:42:12.774Z,18.40
2022-12-20T14:44:40.737Z,17.20
2022-12-20T14:47:25.464Z,17.10
2022-12-20T14:50:01.999Z,18.00
2022-12-20T14:52:37.626Z,16.00
2022-12-20T14:55:29.516Z,17.50
2022-12-20T14:57:57.615Z,16.30
2022-12-20T15:00:31.373Z,16.40
2022-12-20T15:03:01.607Z,16.50
2022-12-20T15:05:44.912Z,16.50
2022-12-20T15:08:18.967Z,17.10
2022-12-20T15:10:54.265Z,16.50
2022-12-20T15:13:39.665Z,16.90
2022-12-20T15:16:28.703Z,18.50
2022-12-20T15:19:01.479Z,16.70
2022-12-20T15:21:32.150Z,16.00
2022-12-20T15:24:01.993Z,16.90
2022-12-20T15:26:30.481Z,17.90
2022-12-20T15:28:57.799Z,18.90
2022-12-20T15:31:32.825Z,21.10
2022-12-20T15:34:03.954Z,20.90
2022-12-20T15:36:33.011Z,20.80
2022-12-20T15:39:15.815Z,19.90
2022-12-20T15:41:46.508Z,20.60
2022-12-20T15:44:23.119Z,19.90
2022-12-20T15:46:50.502Z,20.60
2022-12-20T15:49:20.836Z,20.70
2022-12-20T15:51:49.556Z,20.60
2022-12-20T15:54:29.260Z,20.60
2022-12-20T15:57:06.780Z,18.90
2022-12-20T15:59:59.684Z,21.00
2022-12-20T16:02:27.449Z,20.40
2022-12-20T16:04:55.837Z,20.50
2022-12-20T16:07:23.475Z,19.60
2022-12-20T16:09:51.097Z,19.50
2022-12-20T16:12:26.558Z,20.20
2022-12-20T16:14:54.572Z,20.40
2022-12-20T16:17:21.855Z,19.80
2022-12-20T16:19:50.116Z,20.80
2022-12-20T16:22:21.566Z,19.70
2022-12-20T16:24:49.374Z,19.90
2022-12-20T16:27:17.205Z,19.60
2022-12-20T16:29:44.754Z,20.50
2022-12-20T16:32:18.326Z,21.80
2022-12-20T16:34:46.028Z,21.40
2022-12-20T16:37:13.436Z,22.40
2022-12-20T16:39:44.202Z,22.10
2022-12-20T16:42:15.267Z,21.10
2022-12-20T16:44:44.196Z,21.00
2022-12-20T16:47:11.724Z,22.20
2022-12-20T16:49:38.998Z,21.00
2022-12-20T16:52:16.194Z,22.40
2022-12-20T16:54:43.368Z,22.10
2022-12-20T16:57:10.520Z,22.00
2022-12-20T16:59:37.871Z,23.50
2022-12-20T17:02:21.175Z,21.40
2022-12-20T17:04:48.834Z,20.30
2022-12-20T17:07:15.998Z,22.80
2022-12-20T17:12:28.352Z,21.30
2022-12-20T17:14:55.971Z,22.70
2022-12-20T17:17:23.044Z,24.20
2022-12-20T17:19:50.400Z,22.80
2022-12-20T17:22:24.146Z,22.70
2022-12-20T17:24:52.041Z,21.80
2022-12-20T17:27:19.324Z,22.20
2022-12-20T17:29:46.461Z,21.70
2022-12-20T17:32:22.548Z,21.60
2022-12-20T17:34:50.663Z,23.00
2022-12-20T17:37:18.359Z,23.40
2022-12-20T17:39:45.706Z,22.40
2022-12-20T17:42:13.369Z,22.90
2022-12-20T17:44:40.604Z,22.00
2022-12-20T17:47:07.789Z,21.90
2022-12-20T17:49:34.887Z,23.80
2022-12-20T17:52:02.063Z,22.20
2022-12-20T17:54:35.149Z,21.50
2022-12-20T17:57:11.371Z,21.20
2022-12-20T17:59:38.948Z,21.80
2022-12-20T18:02:21.325Z,22.20
2022-12-20T18:04:49.337Z,21.00
2022-12-20T18:07:16.880Z,20.50
2022-12-20T18:09:46.953Z,23.30
2022-12-20T18:12:14.240Z,21.20
2022-12-20T18:14:41.563Z,22.20
2022-12-20T18:17:08.772Z,20.00
2022-12-20T18:19:36.083Z,22.40
2022-12-20T18:22:04.207Z,20.70
2022-12-20T18:24:31.635Z,20.30
2022-12-20T18:26:58.882Z,22.00
2022-12-20T18:29:26.198Z,22.20
2022-12-20T18:31:53.490Z,21.50
2022-12-20T18:34:20.733Z,21.70
2022-12-20T18:36:48.077Z,22.30
2022-12-20T18:39:15.324Z,20.80
2022-12-20T18:41:43.719Z,21.70
2022-12-20T18:44:11.410Z,20.10
2022-12-20T18:46:40.217Z,21.30
2022-12-20T18:49:08.809Z,20.50
2022-12-20T18:51:36.654Z,21.20
2022-12-20T18:54:06.235Z,22.30
2022-12-20T18:56:36.775Z,20.20
2022-12-20T18:59:10.756Z,20.20
2022-12-20T19:01:40.888Z,21.20
2022-12-20T19:04:08.581Z,19.90
2022-12-20T19:06:37.343Z,19.70
2022-12-20T19:09:08.301Z,19.50
2022-12-20T19:11:35.987Z,21.30
2022-12-20T19:14:03.151Z,20.10
2022-12-20T19:16:32.041Z,21.20
2022-12-20T19:19:01.109Z,20.90
2022-12-20T19:21:34.410Z,20.50
2022-12-20T19:24:06.109Z,19.50
2022-12-20T19:26:35.789Z,21.00
2022-12-20T19:29:03.821Z,20.50
2022-12-20T19:31:32.901Z,21.80
2022-12-20T19:34:03.541Z,20.50
2022-12-20T19:36:35.561Z,20.90
2022-12-20T19:39:04.387Z,20.60
2022-12-20T19:41:33.779Z,20.90
2022-12-20T19:44:01.861Z,21.50
2022-12-20T19:46:30.123Z,23.00
2022-12-20T19:48:59.282Z,22.40
2022-12-20T19:51:27.722Z,22.40
2022-12-20T19:53:56.876Z,21.90
2022-12-20T19:56:28.748Z,23.90
2022-12-20T19:58:56.424Z,23.50
2022-12-20T20:01:26.811Z,23.70
2022-12-20T20:03:56.625Z,24.50
2022-12-20T20:06:24.353Z,24.90
2022-12-20T20:08:51.993Z,26.10
2022-12-20T20:11:20.452Z,25.80
2022-12-20T20:13:47.701Z,25.80
2022-12-20T20:16:21.553Z,24.60
2022-12-20T20:18:49.958Z,24.40
2022-12-20T20:21:21.373Z,23.90
2022-12-20T20:23:51.090Z,23.50
2022-12-20T20:26:23.978Z,23.30
2022-12-20T20:28:52.072Z,26.10
2022-12-20T20:31:20.459Z,25.90
2022-12-20T20:33:48.696Z,25.90
2022-12-20T20:36:21.500Z,25.50
2022-12-20T20:38:51.106Z,24.90
2022-12-20T20:41:18.997Z,24.50
2022-12-20T20:43:46.231Z,25.10
2022-12-20T20:46:15.342Z,25.10
2022-12-20T20:48:43.287Z,25.20
2022-12-20T20:51:11.240Z,24.70
2022-12-20T20:53:38.908Z,23.70
2022-12-20T20:56:07.844Z,25.00
2022-12-20T20:58:35.434Z,24.40
2022-12-20T21:01:04.834Z,24.40
2022-12-20T21:03:32.092Z,25.50
2022-12-20T21:08:47.197Z,24.70
2022-12-20T21:11:14.928Z,23.30
2022-12-20T21:13:42.324Z,24.00
2022-12-20T21:16:19.504Z,23.20
2022-12-20T21:18:51.572Z,25.50
2022-12-20T21:21:19.926Z,24.10
2022-12-20T21:23:47.882Z,25.90
2022-12-20T21:26:16.584Z,25.20
2022-12-20T21:28:43.818Z,26.30
2022-12-20T21:31:17.668Z,25.30
2022-12-20T21:33:45.687Z,25.00
2022-12-20T21:36:15.584Z,25.30
2022-12-20T21:38:47.577Z,24.60
2022-12-20T21:41:14.750Z,25.30
2022-12-20T21:43:42.114Z,27.70
2022-12-20T21:46:10.677Z,26.50
2022-12-20T21:48:42.944Z,25.20
2022-12-20T21:51:21.663Z,25.80
2022-12-20T21:53:51.676Z,25.20
2022-12-20T21:56:20.193Z,23.60
2022-12-20T21:58:48.238Z,25.90
2022-12-20T22:01:18.612Z,24.70
2022-12-20T22:03:50.093Z,23.10
2022-12-20T22:06:18.023Z,25.00
2022-12-20T22:08:45.346Z,22.90
2022-12-20T22:11:17.731Z,24.00
2022-12-20T22:13:45.966Z,22.80
2022-12-20T22:16:16.214Z,22.60
2022-12-20T22:18:47.371Z,24.00
2022-12-20T22:21:16.319Z,25.20
2022-12-20T22:23:43.532Z,23.70
2022-12-20T22:26:16.210Z,24.90
2022-12-20T22:28:46.372Z,25.60
2022-12-20T22:31:13.831Z,22.80
2022-12-20T22:33:41.573Z,24.70
2022-12-20T22:36:10.586Z,23.90
2022-12-20T22:38:38.075Z,22.40
2022-12-20T22:41:29.337Z,22.60
2022-12-20T22:44:00.318Z,23.10
2022-12-20T22:46:31.130Z,23.20
2022-12-20T22:48:59.372Z,23.80
2022-12-20T22:51:30.111Z,24.00
2022-12-20T22:53:58.501Z,21.60
2022-12-20T22:56:26.145Z,23.10
2022-12-20T22:58:53.355Z,22.20
2022-12-20T23:01:20.935Z,24.30
2022-12-20T23:03:48.713Z,24.20
2022-12-20T23:06:19.493Z,23.00
2022-12-20T23:08:47.567Z,24.00
2022-12-20T23:11:42.552Z,24.70
2022-12-20T23:15:03.788Z,22.70
2022-12-20T23:17:32.604Z,23.80
2022-12-20T23:20:18.807Z,23.20
2022-12-20T23:22:46.418Z,23.70
2022-12-20T23:25:16.638Z,22.90
2022-12-20T23:27:46.920Z,24.10
2022-12-20T23:30:17.451Z,24.70
2022-12-20T23:32:45.528Z,24.00
2022-12-20T23:35:15.641Z,24.20
2022-12-20T23:37:44.885Z,22.60
2022-12-20T23:40:13.627Z,23.80
2022-12-20T23:42:41.074Z,22.10
2022-12-20T23:45:10.033Z,22.00
2022-12-20T23:47:37.355Z,24.50
2022-12-20T23:50:05.453Z,23.70
2022-12-20T23:52:32.969Z,24.60
2022-12-20T23:55:00.334Z,24.90
2022-12-20T23:57:31.042Z,23.80
2022-12-20T23:59:58.864Z,24.10
